map of JUB home
Great Circle Mapper logo
JUB - Airport
Location
City:  Juba, South Sudan
Near (Alt.):Djouba
Name:Juba International Airport
ICAO / IATA:HSSJ / JUB

Details
Type:Airport (Aerodrome, Airfield)
Use:International (customs port of entry)
Latitude:452'19"N (4.872006)
Longitude:3136'04"E (31.601117)
Datum:WGS 1984
Elevation:1513 ft (461 m)
Runways:1
Longest:7874 × 148 ft (2400 × 45 m), paved

Time
Time Zone:UTC+3
Local Time:

Weather
TAF:HSSJ 200400Z 2006/2112 15005KT 9999 SCT040 BKN140
TEMPO 2009/2015 21010G20KT 6000 TSRA FEW045CB BKN120
TEMPO 2015/2021 VRB03KT 9999 SCT040 BKN120
TEMPO 2021/2106 05005KT CAVOK

Related Locations
Nearby:
Farthest:NHV: 11824 mi / 19028 km
Nuku Hiva, Marquesas Islands, PF

Find:

   beyond  
but within

Other Information
Maps:
NOTAMs:
Links:
Sources:

  
flag of South Sudan   

Sectional Chart

Flight Planning
at skyvector.com

Satellite Image

Google Maps Satellite View

 

Copyright © 2004-2014 Karl L. Swartz. All rights reserved.
The Great Circle Mapper name and logo are trademarks of the Great Circle Mapper.
All other trademarks mentioned herein belong to their respective owners.
Please see credits for attibutions and further copyright information.

  Follow gcmap on Facebook Follow gcmap on Twitter

hCard Microformat

Geo Microformat